createdAt,value
2023-03-05T00:00:20.071Z,7.10
2023-03-05T00:02:47.337Z,7.10
2023-03-05T00:05:14.439Z,7.10
2023-03-05T00:07:41.442Z,7.10
2023-03-05T00:10:08.631Z,7.10
2023-03-05T00:12:35.540Z,7.10
2023-03-05T00:15:02.888Z,7.10
2023-03-05T00:17:30.014Z,7.10
2023-03-05T00:19:58.208Z,7.10
2023-03-05T00:22:25.098Z,7.10
2023-03-05T00:24:52.025Z,7.10
2023-03-05T00:27:19.403Z,7.10
2023-03-05T00:29:46.352Z,7.10
2023-03-05T00:32:13.371Z,7.10
2023-03-05T00:34:40.284Z,7.10
2023-03-05T00:37:07.696Z,7.10
2023-03-05T00:39:34.582Z,7.10
2023-03-05T00:42:01.484Z,7.10
2023-03-05T00:44:28.451Z,7.10
2023-03-05T00:46:55.347Z,7.00
2023-03-05T00:49:22.258Z,7.00
2023-03-05T00:51:49.166Z,7.00
2023-03-05T00:54:16.128Z,7.10
2023-03-05T00:56:43.188Z,7.10
2023-03-05T00:59:10.395Z,7.10
2023-03-05T01:01:37.425Z,7.10
2023-03-05T01:04:04.385Z,7.00
2023-03-05T01:06:31.473Z,7.10
2023-03-05T01:08:59.394Z,7.00
2023-03-05T01:11:26.951Z,7.00
2023-03-05T01:13:53.860Z,7.00
2023-03-05T01:16:21.021Z,7.00
2023-03-05T01:18:47.944Z,7.00
2023-03-05T01:21:14.860Z,7.00
2023-03-05T01:23:41.821Z,6.90
2023-03-05T01:26:09.994Z,6.90
2023-03-05T01:28:38.422Z,6.90
2023-03-05T01:31:09.449Z,6.90
2023-03-05T01:33:36.850Z,6.90
2023-03-05T01:36:06.865Z,6.90
2023-03-05T01:38:34.383Z,6.90
2023-03-05T01:41:01.342Z,6.90
2023-03-05T01:43:29.417Z,6.90
2023-03-05T01:46:11.597Z,6.80
2023-03-05T01:48:39.205Z,6.80
2023-03-05T01:51:06.659Z,6.90
2023-03-05T01:53:33.607Z,6.90
2023-03-05T01:59:05.277Z,6.90
2023-03-05T02:01:42.876Z,6.80
2023-03-05T02:04:11.250Z,6.80
2023-03-05T02:06:39.727Z,6.90
2023-03-05T02:09:07.295Z,6.80
2023-03-05T02:11:34.648Z,6.80
2023-03-05T02:14:02.469Z,6.80
2023-03-05T02:16:36.117Z,6.80
2023-03-05T02:19:04.843Z,6.80
2023-03-05T02:21:43.192Z,6.80
2023-03-05T02:24:11.901Z,6.80
2023-03-05T02:26:39.320Z,6.80
2023-03-05T02:29:08.344Z,6.80
2023-03-05T02:31:35.402Z,6.80
2023-03-05T02:34:03.062Z,6.70
2023-03-05T02:36:30.077Z,6.80
2023-03-05T02:38:59.406Z,6.70
2023-03-05T02:41:26.618Z,6.70
2023-03-05T02:43:53.781Z,6.70
2023-03-05T02:46:20.706Z,6.70
2023-03-05T02:48:48.013Z,6.70
2023-03-05T02:51:21.165Z,6.70
2023-03-05T02:53:48.004Z,6.70
2023-03-05T02:56:14.894Z,6.70
2023-03-05T02:58:42.193Z,6.70
2023-03-05T03:01:10.437Z,6.70
2023-03-05T03:03:37.701Z,6.70
2023-03-05T03:06:04.781Z,6.70
2023-03-05T03:08:31.718Z,6.70
2023-03-05T03:11:04.395Z,6.70
2023-03-05T03:13:31.345Z,6.70
2023-03-05T03:16:08.903Z,6.60
2023-03-05T03:18:35.961Z,6.60
2023-03-05T03:21:03.644Z,6.60
2023-03-05T03:23:31.007Z,6.60
2023-03-05T03:25:58.346Z,6.60
2023-03-05T03:28:25.528Z,6.50
2023-03-05T03:30:52.468Z,6.50
2023-03-05T03:33:19.598Z,6.40
2023-03-05T03:35:47.048Z,6.40
2023-03-05T03:38:14.181Z,6.40
2023-03-05T03:40:41.961Z,6.40
2023-03-05T03:43:08.908Z,6.40
2023-03-05T03:45:35.904Z,6.40
2023-03-05T03:48:02.905Z,6.40
2023-03-05T03:50:30.105Z,6.30
2023-03-05T03:52:57.097Z,6.40
2023-03-05T03:55:23.968Z,6.40
2023-03-05T03:57:50.979Z,6.40
2023-03-05T04:00:18.180Z,6.40
2023-03-05T04:02:45.127Z,6.40
2023-03-05T04:05:12.122Z,6.40
2023-03-05T04:07:39.018Z,6.50
2023-03-05T04:10:06.148Z,6.40
2023-03-05T04:12:33.463Z,6.40
2023-03-05T04:15:00.385Z,6.40
2023-03-05T04:17:27.296Z,6.30
2023-03-05T04:19:54.216Z,6.30
2023-03-05T04:22:21.120Z,6.40
2023-03-05T04:24:47.983Z,6.30
2023-03-05T04:27:14.867Z,6.30
2023-03-05T04:29:41.809Z,6.30
2023-03-05T04:32:08.789Z,6.30
2023-03-05T04:34:36.929Z,6.40
2023-03-05T04:37:04.039Z,6.40
2023-03-05T04:39:31.139Z,6.40
2023-03-05T04:41:58.019Z,6.30
2023-03-05T04:44:26.262Z,6.30
2023-03-05T04:46:53.140Z,6.30
2023-03-05T04:49:20.770Z,6.30
2023-03-05T04:51:47.716Z,6.30
2023-03-05T04:54:14.684Z,6.30
2023-03-05T04:56:41.592Z,6.30
2023-03-05T04:59:08.542Z,6.30
2023-03-05T05:01:35.667Z,6.40
2023-03-05T05:04:02.684Z,6.30
2023-03-05T05:06:29.590Z,6.30
2023-03-05T05:08:56.559Z,6.30
2023-03-05T05:11:23.468Z,6.30
2023-03-05T05:13:50.446Z,6.30
2023-03-05T05:16:17.440Z,6.30
2023-03-05T05:18:44.621Z,6.30
2023-03-05T05:21:13.259Z,6.30
2023-03-05T05:23:40.395Z,6.30
2023-03-05T05:26:08.701Z,6.30
2023-03-05T05:28:36.181Z,6.40
2023-03-05T05:31:07.181Z,6.30
2023-03-05T05:33:34.500Z,6.30
2023-03-05T05:36:05.476Z,6.30
2023-03-05T05:38:32.622Z,6.30
2023-03-05T05:41:26.374Z,6.30
2023-03-05T05:43:53.378Z,6.30
2023-03-05T05:46:20.606Z,6.30
2023-03-05T05:48:47.844Z,6.30
2023-03-05T05:51:16.508Z,6.30
2023-03-05T05:53:43.934Z,6.30
2023-03-05T05:56:11.414Z,6.30
2023-03-05T05:58:39.432Z,6.30
2023-03-05T06:01:26.729Z,6.30
2023-03-05T06:03:53.732Z,6.30
2023-03-05T06:06:22.276Z,6.30
2023-03-05T06:08:49.284Z,6.30
2023-03-05T06:11:18.932Z,6.30
2023-03-05T06:13:46.419Z,6.30
2023-03-05T06:16:14.697Z,6.30
2023-03-05T06:18:41.874Z,6.30
2023-03-05T06:21:11.590Z,6.30
2023-03-05T06:23:38.401Z,6.30
2023-03-05T06:26:06.887Z,6.30
2023-03-05T06:28:34.975Z,6.30
2023-03-05T06:31:02.814Z,6.30
2023-03-05T06:33:29.843Z,6.30
2023-03-05T06:35:56.947Z,6.30
2023-03-05T06:38:23.870Z,6.30
2023-03-05T06:40:50.995Z,6.30
2023-03-05T06:43:18.042Z,6.30
2023-03-05T06:45:44.999Z,6.30
2023-03-05T06:48:13.051Z,6.30
2023-03-05T06:50:39.998Z,6.30
2023-03-05T06:53:07.049Z,6.30
2023-03-05T06:55:39.838Z,6.30
2023-03-05T06:58:07.165Z,6.30
2023-03-05T07:00:34.084Z,6.30
2023-03-05T07:03:00.984Z,6.20
2023-03-05T07:05:28.122Z,6.30
2023-03-05T07:07:55.025Z,6.30
2023-03-05T07:10:21.900Z,6.30
2023-03-05T07:12:48.843Z,6.30
2023-03-05T07:15:15.832Z,6.30
2023-03-05T07:17:42.641Z,6.30
2023-03-05T07:20:10.087Z,6.40
2023-03-05T07:22:37.414Z,6.40
2023-03-05T07:25:04.808Z,6.50
2023-03-05T07:27:35.066Z,6.50
2023-03-05T07:30:02.279Z,6.50
2023-03-05T07:32:29.197Z,6.50
2023-03-05T07:34:56.116Z,6.60
2023-03-05T07:37:23.513Z,6.60
2023-03-05T07:39:50.497Z,6.60
2023-03-05T07:42:17.589Z,6.70
2023-03-05T07:44:44.553Z,6.70
2023-03-05T07:47:11.484Z,6.80
2023-03-05T07:49:41.696Z,6.80
2023-03-05T07:52:09.433Z,6.80
2023-03-05T07:54:38.954Z,6.80
2023-03-05T07:57:06.338Z,6.80
2023-03-05T07:59:33.314Z,6.90
2023-03-05T08:02:00.296Z,6.90
2023-03-05T08:04:27.330Z,6.90
2023-03-05T08:09:24.933Z,7.00
2023-03-05T08:11:52.062Z,7.00
2023-03-05T08:14:19.461Z,7.10
2023-03-05T08:16:48.356Z,7.10
2023-03-05T08:19:15.428Z,7.10
2023-03-05T08:21:42.329Z,7.10
2023-03-05T08:24:10.905Z,7.10
2023-03-05T08:26:41.420Z,7.20
2023-03-05T08:29:11.725Z,7.30
2023-03-05T08:31:38.869Z,7.30
2023-03-05T08:34:06.620Z,7.30
2023-03-05T08:36:33.626Z,7.30
2023-03-05T08:39:00.683Z,7.30
2023-03-05T08:41:27.633Z,7.30
2023-03-05T08:43:54.801Z,7.40
2023-03-05T08:46:21.847Z,7.40
2023-03-05T08:48:48.859Z,7.40
2023-03-05T08:51:26.077Z,7.40
2023-03-05T08:53:54.146Z,7.50
2023-03-05T08:56:21.529Z,7.50
2023-03-05T08:58:59.108Z,7.60
2023-03-05T09:01:26.264Z,7.60
2023-03-05T09:03:53.976Z,7.60
2023-03-05T09:06:21.058Z,7.70
2023-03-05T09:08:47.934Z,7.80
2023-03-05T09:11:14.881Z,7.80
2023-03-05T09:13:41.846Z,7.80
2023-03-05T09:16:11.160Z,7.90
2023-03-05T09:18:40.273Z,7.90
2023-03-05T09:21:08.295Z,8.00
2023-03-05T09:23:38.222Z,8.00
2023-03-05T09:26:06.296Z,8.00
2023-03-05T09:28:33.504Z,8.10
2023-03-05T09:31:07.879Z,8.20
2023-03-05T09:33:35.594Z,8.20
2023-03-05T09:36:02.862Z,8.30
2023-03-05T09:38:29.874Z,8.30
2023-03-05T09:41:08.127Z,8.30
2023-03-05T09:43:57.606Z,8.30
2023-03-05T09:46:47.456Z,8.40
2023-03-05T09:49:14.433Z,8.40
2023-03-05T09:51:43.112Z,8.50
2023-03-05T09:54:15.488Z,8.50
2023-03-05T09:56:44.883Z,8.50
2023-03-05T09:59:18.061Z,8.50
2023-03-05T10:01:45.386Z,8.60
2023-03-05T10:04:25.831Z,8.70
2023-03-05T10:06:55.218Z,8.80
2023-03-05T10:09:43.118Z,8.80
2023-03-05T10:12:16.693Z,8.90
2023-03-05T10:14:43.668Z,8.90
2023-03-05T10:17:16.272Z,8.90
2023-03-05T10:20:09.504Z,8.90
2023-03-05T10:22:48.360Z,8.90
2023-03-05T10:25:23.765Z,9.00
2023-03-05T10:27:54.414Z,9.10
2023-03-05T10:30:27.277Z,9.20
2023-03-05T10:33:08.065Z,9.20
2023-03-05T10:35:35.143Z,9.10
2023-03-05T10:38:21.617Z,9.20
2023-03-05T10:41:00.862Z,9.30
2023-03-05T10:43:42.544Z,9.40
2023-03-05T10:46:15.954Z,9.40
2023-03-05T10:48:58.923Z,9.50
2023-03-05T10:51:35.218Z,9.40
2023-03-05T10:54:04.197Z,9.30
2023-03-05T10:56:32.113Z,9.20
2023-03-05T10:59:02.108Z,9.10
2023-03-05T11:01:30.144Z,9.10
2023-03-05T11:04:07.229Z,9.10
2023-03-05T11:06:41.568Z,8.70
2023-03-05T11:09:25.180Z,8.20
2023-03-05T11:12:05.843Z,8.00
2023-03-05T11:14:33.824Z,7.80
2023-03-05T11:17:02.009Z,7.70
2023-03-05T11:19:33.047Z,7.70
2023-03-05T11:22:21.169Z,7.60
2023-03-05T11:25:15.279Z,7.60
2023-03-05T11:27:54.940Z,7.70
2023-03-05T11:30:21.917Z,7.80
2023-03-05T11:32:49.088Z,7.80
2023-03-05T11:35:29.603Z,7.90
2023-03-05T11:38:04.195Z,7.90
2023-03-05T11:40:31.934Z,8.10
2023-03-05T11:43:00.084Z,8.00
2023-03-05T11:45:28.483Z,8.00
2023-03-05T11:48:15.615Z,8.00
2023-03-05T11:50:44.055Z,8.00
2023-03-05T11:53:19.372Z,8.10
2023-03-05T11:55:49.018Z,8.20
2023-03-05T11:58:15.975Z,8.30
2023-03-05T12:00:44.163Z,8.40
2023-03-05T12:03:34.437Z,8.50
2023-03-05T12:06:15.721Z,8.60
2023-03-05T12:08:45.086Z,8.60
2023-03-05T12:11:18.116Z,8.70
2023-03-05T12:14:05.091Z,8.90
2023-03-05T12:16:35.336Z,8.90
2023-03-05T12:19:08.441Z,8.90
2023-03-05T12:21:41.268Z,8.90
2023-03-05T12:24:25.474Z,8.90
2023-03-05T12:26:57.534Z,9.00
2023-03-05T12:29:33.710Z,9.00
2023-03-05T12:32:01.572Z,9.00
2023-03-05T12:34:35.674Z,9.10
2023-03-05T12:37:03.383Z,9.10
2023-03-05T12:39:39.497Z,9.10
2023-03-05T12:42:26.433Z,9.20
2023-03-05T12:45:11.990Z,9.20
2023-03-05T12:47:41.912Z,9.20
2023-03-05T12:50:27.734Z,9.30
2023-03-05T12:52:55.252Z,9.30
2023-03-05T12:55:44.920Z,9.30
2023-03-05T12:58:25.979Z,9.40
2023-03-05T13:00:59.462Z,9.40
2023-03-05T13:03:33.624Z,9.50
2023-03-05T13:06:01.194Z,9.40
2023-03-05T13:08:31.811Z,9.40
2023-03-05T13:11:04.789Z,9.50
2023-03-05T13:13:35.211Z,9.40
2023-03-05T13:16:02.744Z,9.50
2023-03-05T13:18:31.085Z,9.40
2023-03-05T13:21:05.459Z,9.40
2023-03-05T13:26:20.845Z,9.30
2023-03-05T13:29:07.974Z,9.20
2023-03-05T13:31:55.174Z,9.20
2023-03-05T13:34:40.817Z,9.20
2023-03-05T13:37:17.863Z,9.10
2023-03-05T13:39:48.993Z,9.10
2023-03-05T13:42:15.941Z,9.20
2023-03-05T13:44:43.063Z,9.10
2023-03-05T13:47:15.708Z,9.00
2023-03-05T13:49:43.345Z,9.00
2023-03-05T13:52:10.739Z,9.00
2023-03-05T13:54:39.839Z,9.00
2023-03-05T13:57:08.204Z,9.00
2023-03-05T13:59:36.086Z,8.90
2023-03-05T14:02:33.477Z,8.90
2023-03-05T14:05:00.772Z,8.80
2023-03-05T14:07:38.975Z,8.80
2023-03-05T14:10:25.967Z,8.80
2023-03-05T14:12:52.991Z,8.80
2023-03-05T14:15:24.448Z,8.70
2023-03-05T14:17:51.849Z,8.70
2023-03-05T14:20:23.359Z,8.60
2023-03-05T14:22:51.769Z,8.60
2023-03-05T14:25:40.005Z,8.60
2023-03-05T14:28:21.243Z,8.50
2023-03-05T14:30:49.574Z,8.50
2023-03-05T14:33:23.639Z,8.50
2023-03-05T14:35:51.384Z,8.50
2023-03-05T14:38:29.723Z,8.50
2023-03-05T14:40:56.767Z,8.50
2023-03-05T14:43:23.960Z,8.50
2023-03-05T14:45:50.911Z,8.60
2023-03-05T14:48:18.948Z,8.60
2023-03-05T14:50:45.919Z,8.50
2023-03-05T14:53:23.916Z,8.50
2023-03-05T14:55:53.931Z,8.40
2023-03-05T14:58:22.816Z,8.40
2023-03-05T15:00:51.260Z,8.40
2023-03-05T15:03:19.145Z,8.40
2023-03-05T15:05:47.646Z,8.40
2023-03-05T15:08:18.811Z,8.40
2023-03-05T15:10:46.341Z,8.40
2023-03-05T15:13:14.193Z,8.40
2023-03-05T15:15:42.508Z,8.40
2023-03-05T15:18:19.730Z,8.40
2023-03-05T15:20:48.949Z,8.40
2023-03-05T15:23:17.264Z,8.30
2023-03-05T15:25:44.562Z,8.40
2023-03-05T15:28:11.648Z,8.40
2023-03-05T15:30:40.147Z,8.40
2023-03-05T15:33:08.484Z,8.40
2023-03-05T15:35:36.125Z,8.40
2023-03-05T15:40:32.131Z,8.40
2023-03-05T15:42:59.905Z,8.30
2023-03-05T15:45:27.688Z,8.30
2023-03-05T15:47:54.845Z,8.30
2023-03-05T15:50:22.122Z,8.30
2023-03-05T15:52:49.765Z,8.30
2023-03-05T15:55:18.518Z,8.30
2023-03-05T15:57:47.351Z,8.30
2023-03-05T16:00:17.999Z,8.30
2023-03-05T16:02:44.910Z,8.30
2023-03-05T16:05:11.785Z,8.30
2023-03-05T16:07:40.243Z,8.30
2023-03-05T16:10:07.582Z,8.30
2023-03-05T16:12:40.923Z,8.30
2023-03-05T16:15:12.844Z,8.20
2023-03-05T16:17:44.245Z,8.20
2023-03-05T16:20:12.565Z,8.00
2023-03-05T16:22:39.538Z,7.70
2023-03-05T16:25:06.973Z,7.50
2023-03-05T16:27:34.063Z,7.30
2023-03-05T16:30:00.976Z,7.10
2023-03-05T16:32:30.897Z,7.10
2023-03-05T16:34:58.434Z,7.00
2023-03-05T16:37:25.712Z,7.00
2023-03-05T16:39:52.666Z,6.90
2023-03-05T16:42:19.593Z,6.90
2023-03-05T16:44:47.658Z,7.00
2023-03-05T16:47:14.804Z,6.90
2023-03-05T16:49:41.750Z,7.00
2023-03-05T16:52:18.804Z,6.90
2023-03-05T16:54:47.045Z,7.00
2023-03-05T16:57:14.329Z,7.00
2023-03-05T16:59:41.663Z,6.90
2023-03-05T17:02:08.534Z,7.00
2023-03-05T17:04:35.502Z,7.00
2023-03-05T17:07:04.294Z,7.00
2023-03-05T17:09:31.316Z,7.00
2023-03-05T17:11:58.281Z,7.00
2023-03-05T17:14:25.248Z,7.00
2023-03-05T17:16:52.155Z,7.00
2023-03-05T17:19:19.028Z,7.00
2023-03-05T17:21:45.958Z,7.00
2023-03-05T17:24:12.900Z,7.00
2023-03-05T17:26:39.755Z,7.00
2023-03-05T17:29:07.037Z,7.00
2023-03-05T17:31:34.023Z,7.00
2023-03-05T17:34:01.176Z,6.90
2023-03-05T17:36:28.038Z,6.90
2023-03-05T17:38:55.003Z,6.90
2023-03-05T17:41:22.291Z,7.00
2023-03-05T17:43:49.563Z,7.00
2023-03-05T17:46:16.997Z,7.00
2023-03-05T17:48:44.215Z,6.90
2023-03-05T17:51:12.552Z,6.90
2023-03-05T17:53:40.421Z,6.80
2023-03-05T17:56:08.396Z,6.80
2023-03-05T17:58:35.365Z,6.80
2023-03-05T18:01:02.361Z,6.80
2023-03-05T18:03:29.459Z,6.80
2023-03-05T18:05:56.327Z,6.80
2023-03-05T18:08:23.218Z,6.70
2023-03-05T18:10:50.340Z,6.70
2023-03-05T18:13:17.286Z,6.70
2023-03-05T18:15:47.890Z,6.70
2023-03-05T18:18:15.727Z,6.80
2023-03-05T18:20:42.749Z,6.70
2023-03-05T18:23:10.411Z,6.70
2023-03-05T18:25:37.386Z,6.70
2023-03-05T18:28:06.555Z,6.70
2023-03-05T18:30:33.668Z,6.60
2023-03-05T18:33:01.221Z,6.60
2023-03-05T18:35:29.458Z,6.70
2023-03-05T18:37:56.892Z,6.70
2023-03-05T18:40:25.471Z,6.70
2023-03-05T18:42:52.323Z,6.70
2023-03-05T18:45:20.388Z,6.70
2023-03-05T18:47:48.155Z,6.70
2023-03-05T18:50:18.608Z,6.70
2023-03-05T18:52:45.671Z,6.70
2023-03-05T18:55:16.562Z,6.70
2023-03-05T18:57:43.513Z,6.70
2023-03-05T19:00:13.119Z,6.70
2023-03-05T19:02:40.463Z,6.70
2023-03-05T19:05:07.545Z,6.70
2023-03-05T19:07:35.358Z,6.70
2023-03-05T19:10:07.753Z,6.70
2023-03-05T19:12:45.603Z,6.70
2023-03-05T19:15:28.443Z,6.70
2023-03-05T19:17:56.148Z,6.70
2023-03-05T19:20:23.041Z,6.70
2023-03-05T19:22:51.086Z,6.70
2023-03-05T19:25:18.564Z,6.60
2023-03-05T19:27:45.507Z,6.60
2023-03-05T19:30:13.005Z,6.60
2023-03-05T19:32:39.949Z,6.60
2023-03-05T19:35:07.021Z,6.60
2023-03-05T19:37:36.497Z,6.60
2023-03-05T19:40:04.405Z,6.50
2023-03-05T19:42:31.625Z,6.50
2023-03-05T19:45:00.147Z,6.50
2023-03-05T19:47:27.512Z,6.60
2023-03-05T19:49:54.500Z,6.60
2023-03-05T19:52:21.804Z,6.60
2023-03-05T19:54:48.726Z,6.60
2023-03-05T19:57:15.649Z,6.60
2023-03-05T19:59:44.318Z,6.60
2023-03-05T20:02:12.681Z,6.60
2023-03-05T20:04:39.710Z,6.60
2023-03-05T20:07:07.300Z,6.50
2023-03-05T20:09:34.418Z,6.50
2023-03-05T20:12:04.783Z,6.50
2023-03-05T20:14:31.923Z,6.50
2023-03-05T20:16:58.823Z,6.50
2023-03-05T20:19:25.713Z,6.50
2023-03-05T20:21:52.662Z,6.50
2023-03-05T20:24:19.802Z,6.40
2023-03-05T20:26:47.093Z,6.50
2023-03-05T20:29:17.494Z,6.40
2023-03-05T20:31:45.481Z,6.40
2023-03-05T20:34:13.796Z,6.40
2023-03-05T20:36:40.701Z,6.50
2023-03-05T20:39:08.323Z,6.40
2023-03-05T20:41:36.146Z,6.40
2023-03-05T20:44:03.568Z,6.40
2023-03-05T20:46:32.753Z,6.50
2023-03-05T20:49:01.558Z,6.40
2023-03-05T20:51:36.092Z,6.40
2023-03-05T20:54:04.958Z,6.40
2023-03-05T20:56:32.592Z,6.40
2023-03-05T20:59:00.992Z,6.50
2023-03-05T21:01:28.385Z,6.40
2023-03-05T21:03:57.380Z,6.40
2023-03-05T21:06:24.747Z,6.40
2023-03-05T21:08:51.769Z,6.40
2023-03-05T21:11:18.738Z,6.40
2023-03-05T21:13:45.974Z,6.40
2023-03-05T21:16:17.971Z,6.40
2023-03-05T21:18:44.842Z,6.40
2023-03-05T21:21:11.795Z,6.40
2023-03-05T21:23:38.636Z,6.40
2023-03-05T21:26:05.753Z,6.40
2023-03-05T21:28:33.375Z,6.40
2023-03-05T21:31:05.765Z,6.30
2023-03-05T21:33:32.792Z,6.30
2023-03-05T21:36:00.050Z,6.30
2023-03-05T21:38:29.972Z,6.30
2023-03-05T21:40:57.915Z,6.30
2023-03-05T21:43:25.474Z,6.30
2023-03-05T21:45:53.761Z,6.30
2023-03-05T21:48:21.588Z,6.20
2023-03-05T21:50:49.142Z,6.30
2023-03-05T21:53:16.927Z,6.30
2023-03-05T21:56:26.165Z,6.20
2023-03-05T21:58:53.669Z,6.20
2023-03-05T22:01:21.389Z,6.20
2023-03-05T22:03:49.370Z,6.20
2023-03-05T22:06:17.913Z,6.20
2023-03-05T22:08:45.124Z,6.20
2023-03-05T22:11:13.541Z,6.20
2023-03-05T22:13:40.845Z,6.30
2023-03-05T22:16:09.327Z,6.20
2023-03-05T22:18:37.147Z,6.20
2023-03-05T22:21:04.230Z,6.20
2023-03-05T22:23:34.200Z,6.20
2023-03-05T22:26:01.090Z,6.20
2023-03-05T22:28:28.735Z,6.20
2023-03-05T22:30:55.689Z,6.20
2023-03-05T22:33:23.248Z,6.20
2023-03-05T22:35:50.466Z,6.20
2023-03-05T22:38:17.800Z,6.10
2023-03-05T22:40:46.010Z,6.10
2023-03-05T22:43:13.846Z,6.10
2023-03-05T22:45:40.892Z,6.10
2023-03-05T22:48:10.053Z,6.10
2023-03-05T22:50:38.378Z,6.10
2023-03-05T22:53:05.340Z,6.10
2023-03-05T22:55:32.212Z,6.10
2023-03-05T22:57:59.054Z,6.20
2023-03-05T23:00:26.921Z,6.10
2023-03-05T23:02:54.186Z,6.10
2023-03-05T23:05:21.353Z,6.00
2023-03-05T23:07:48.423Z,6.00
2023-03-05T23:10:16.984Z,6.00
2023-03-05T23:12:46.342Z,6.10
2023-03-05T23:15:14.894Z,6.00
2023-03-05T23:17:41.896Z,6.10
2023-03-05T23:20:10.522Z,6.10
2023-03-05T23:22:38.486Z,6.00
2023-03-05T23:25:05.672Z,6.00
2023-03-05T23:27:33.103Z,6.00
2023-03-05T23:30:19.895Z,6.00
2023-03-05T23:32:48.894Z,6.00
2023-03-05T23:35:17.536Z,5.90
2023-03-05T23:37:44.587Z,5.90
2023-03-05T23:40:15.978Z,5.80
2023-03-05T23:42:46.095Z,5.80
2023-03-05T23:45:14.025Z,5.80
2023-03-05T23:47:41.195Z,5.80
2023-03-05T23:50:09.370Z,5.90
2023-03-05T23:52:36.387Z,5.90
2023-03-05T23:55:03.428Z,5.90
2023-03-05T23:57:30.563Z,5.90
2023-03-05T23:59:57.430Z,5.90
